Time;durP1;ratioP1;P1;durP2;ratioP2;P2;SDS_P1;SDS_P2;PMS_P1;PMS_P2;Temp;Humidity;BMP_temperature;BMP_pressure;BME280_temperature;BME280_humidity;BME280_pressure;Samples;Min_cycle;Max_cycle;Signal;HPM_P1;HPM_P2
2023/07/02 00:02:17;;;;;;;12.65;4.28;;;;;;;14.38;58.50;99519.97;4969667;28;20065;-50
2023/07/02 00:04:44;;;;;;;18.88;4.43;;;;;;;14.35;58.33;99520.91;4970443;28;20066;-53
2023/07/02 00:07:10;;;;;;;15.18;4.35;;;;;;;14.32;58.13;99534.00;4973678;28;20536;-53
2023/07/02 00:09:37;;;;;;;13.05;4.20;;;;;;;14.29;58.03;99526.31;4969820;28;20082;-55
2023/07/02 00:12:04;;;;;;;16.40;4.57;;;;;;;14.27;58.18;99528.06;4969581;28;20092;-55
2023/07/02 00:14:31;;;;;;;16.17;4.53;;;;;;;14.25;58.23;99524.66;4971420;28;20057;-53
2023/07/02 00:16:58;;;;;;;16.35;4.70;;;;;;;14.22;58.96;99529.97;4973285;28;20057;-54
2023/07/02 00:19:25;;;;;;;17.25;4.25;;;;;;;14.19;58.03;99519.63;4974870;28;20080;-54
2023/07/02 00:21:53;;;;;;;17.80;4.20;;;;;;;14.16;59.00;99519.69;4973608;28;20691;-53
2023/07/02 00:24:20;;;;;;;15.32;4.68;;;;;;;14.12;58.16;99524.97;4970126;28;20538;-54
2023/07/02 00:26:46;;;;;;;15.77;4.13;;;;;;;14.11;58.25;99525.88;4972044;28;20146;-52
2023/07/02 00:29:13;;;;;;;17.30;4.82;;;;;;;14.08;58.87;99532.94;4968594;28;20055;-54
2023/07/02 00:31:40;;;;;;;13.85;3.78;;;;;;;14.04;58.51;99526.94;4964792;28;20057;-52
2023/07/02 00:34:06;;;;;;;12.95;4.07;;;;;;;14.01;59.27;99532.19;4970753;28;22177;-53
2023/07/02 00:36:33;;;;;;;13.75;3.83;;;;;;;13.98;58.71;99527.06;4975852;28;20058;-54
2023/07/02 00:39:00;;;;;;;15.02;3.60;;;;;;;13.95;58.90;99521.97;4969470;28;20054;-51
2023/07/02 00:41:26;;;;;;;14.90;4.18;;;;;;;13.93;59.14;99528.94;4964517;28;20050;-53
2023/07/02 00:43:54;;;;;;;14.60;3.95;;;;;;;13.91;59.60;99525.53;4966525;28;20054;-54
2023/07/02 00:46:25;;;;;;;11.40;3.30;;;;;;;13.91;59.78;99530.75;4969290;28;20050;-56
2023/07/02 00:48:54;;;;;;;16.63;3.70;;;;;;;13.89;59.71;99533.38;4972036;28;20045;-52
2023/07/02 00:51:25;;;;;;;18.80;3.20;;;;;;;13.84;58.83;99536.09;4974689;28;20474;-48
2023/07/02 00:53:54;;;;;;;19.95;3.63;;;;;;;13.82;59.14;99543.06;4970629;28;20058;-54
2023/07/02 00:56:22;;;;;;;13.48;3.50;;;;;;;13.77;60.02;99539.72;4973708;28;20057;-54
2023/07/02 00:58:50;;;;;;;13.25;3.70;;;;;;;13.75;59.59;99528.53;4972639;28;20054;-51
2023/07/02 01:01:19;;;;;;;9.27;3.35;;;;;;;13.75;59.45;99536.31;4973658;28;20088;-52
2023/07/02 01:04:00;;;;;;;11.13;3.80;;;;;;;13.67;59.08;99530.41;4972034;28;20194;-51
2023/07/02 01:06:29;;;;;;;12.38;3.95;;;;;;;13.69;58.85;99536.47;4972849;28;20740;-55
2023/07/02 01:08:58;;;;;;;12.05;3.38;;;;;;;13.66;59.91;99533.94;4984388;28;20145;-54
2023/07/02 01:11:30;;;;;;;17.65;4.05;;;;;;;13.62;58.81;99536.59;4960408;28;20385;-49
2023/07/02 01:14:02;;;;;;;18.08;3.55;;;;;;;13.59;59.76;99530.63;4975607;28;20146;-52
2023/07/02 01:16:32;;;;;;;11.20;2.78;;;;;;;13.56;59.66;99541.97;4974250;28;20058;-53
2023/07/02 01:19:04;;;;;;;12.40;3.40;;;;;;;13.52;59.44;99545.53;4968947;28;20050;-52
2023/07/02 01:21:32;;;;;;;16.95;3.42;;;;;;;13.49;59.56;99537.78;4973044;28;20084;-50
2023/07/02 01:24:00;;;;;;;13.75;3.47;;;;;;;13.45;59.03;99541.31;4970389;28;20081;-56
2023/07/02 01:26:33;;;;;;;11.68;3.60;;;;;;;13.42;60.41;99538.78;4968127;28;20233;-51
2023/07/02 01:29:14;;;;;;;14.45;3.25;;;;;;;13.33;59.31;99545.91;4972293;28;20045;-54
2023/07/02 01:31:40;;;;;;;14.20;6.22;;;;;;;13.34;60.02;99542.41;4966886;28;21138;-52
2023/07/02 01:34:09;;;;;;;13.38;3.47;;;;;;;13.32;60.47;99549.41;4962762;28;20050;-53
2023/07/02 01:36:35;;;;;;;13.88;3.42;;;;;;;13.30;60.13;99550.31;4969337;28;20137;-52
2023/07/02 01:39:03;;;;;;;10.70;2.75;;;;;;;13.27;59.06;99556.44;4973310;28;20054;-53
2023/07/02 01:41:29;;;;;;;13.95;4.03;;;;;;;13.23;59.16;99558.25;4972003;28;20054;-53
2023/07/02 01:43:56;;;;;;;8.63;3.05;;;;;;;13.19;59.83;99555.75;4963530;28;20053;-50
2023/07/02 01:46:23;;;;;;;9.93;2.92;;;;;;;13.18;60.32;99559.25;4970358;28;20046;-53
2023/07/02 01:48:49;;;;;;;10.77;2.92;;;;;;;13.15;60.93;99569.69;4967408;28;20100;-53
2023/07/02 01:51:16;;;;;;;12.25;2.72;;;;;;;13.13;60.17;99572.34;4971602;28;20046;-52
2023/07/02 01:53:43;;;;;;;12.98;3.13;;;;;;;13.11;60.11;99574.13;4973721;28;20398;-52
2023/07/02 01:56:10;;;;;;;10.32;2.83;;;;;;;13.09;60.47;99568.97;4973963;28;21106;-49
2023/07/02 01:58:36;;;;;;;11.90;3.10;;;;;;;13.07;60.18;99570.72;4973918;28;20058;-54
2023/07/02 02:01:03;;;;;;;9.82;2.95;;;;;;;13.04;60.86;99562.97;4971673;28;20046;-53
2023/07/02 02:03:29;;;;;;;8.35;2.35;;;;;;;13.03;60.49;99573.44;4972639;28;20176;-51
2023/07/02 02:05:56;;;;;;;8.93;2.83;;;;;;;13.01;59.76;99570.88;4973469;28;20055;-51
2023/07/02 02:08:23;;;;;;;8.23;2.90;;;;;;;12.99;59.80;99564.81;4972289;28;20051;-52
2023/07/02 02:10:50;;;;;;;9.38;2.80;;;;;;;12.96;60.90;99567.47;4967503;28;20521;-51
2023/07/02 02:13:16;;;;;;;9.15;3.10;;;;;;;12.92;60.18;99566.69;4970186;28;20046;-51
2023/07/02 02:15:43;;;;;;;8.88;2.63;;;;;;;12.92;60.86;99566.69;4968680;28;20046;-51
2023/07/02 02:18:10;;;;;;;12.43;2.70;;;;;;;12.90;61.25;99568.47;4968297;28;20050;-54
2023/07/02 02:20:36;;;;;;;9.13;3.00;;;;;;;12.89;60.15;99571.09;4964399;28;20061;-54
2023/07/02 02:23:03;;;;;;;9.38;3.30;;;;;;;12.87;60.77;99567.69;4964882;28;20422;-52
2023/07/02 02:25:29;;;;;;;8.73;2.72;;;;;;;12.84;60.83;99569.44;4966946;28;20050;-54
2023/07/02 02:27:56;;;;;;;9.75;2.25;;;;;;;12.82;61.00;99570.34;4968658;28;20152;-52
2023/07/02 02:30:23;;;;;;;10.10;3.58;;;;;;;12.78;60.13;99569.56;4962196;28;20703;-55
2023/07/02 02:32:49;;;;;;;13.82;3.30;;;;;;;12.75;60.56;99567.03;4970559;28;20058;-52
2023/07/02 02:35:16;;;;;;;10.65;2.90;;;;;;;12.70;60.96;99577.50;4971832;28;20154;-53
2023/07/02 02:37:43;;;;;;;11.93;3.20;;;;;;;12.72;61.42;99580.06;4961114;28;20654;-53
2023/07/02 02:40:10;;;;;;;11.55;3.40;;;;;;;12.72;61.99;99580.94;4972459;28;20046;-53
2023/07/02 02:42:36;;;;;;;9.98;3.00;;;;;;;12.69;61.84;99575.81;4968939;28;20050;-52
2023/07/02 02:45:03;;;;;;;12.00;3.67;;;;;;;12.68;61.82;99573.22;4965144;28;20054;-53
2023/07/02 02:47:30;;;;;;;11.07;2.72;;;;;;;12.67;61.63;99576.72;4967255;28;20082;-49
2023/07/02 02:49:57;;;;;;;11.90;3.78;;;;;;;12.64;60.98;99582.84;4965657;28;20050;-49
2023/07/02 02:52:23;;;;;;;13.50;3.47;;;;;;;12.63;61.43;99580.25;4967376;28;20053;-52
2023/07/02 02:54:52;;;;;;;12.52;3.20;;;;;;;12.60;61.09;99576.81;4972756;28;20049;-50
2023/07/02 02:57:19;;;;;;;17.13;4.45;;;;;;;12.58;61.93;99583.81;4977657;28;20702;-49
2023/07/02 02:59:46;;;;;;;17.92;4.75;;;;;;;12.56;61.70;99582.97;4975927;28;20045;-49
2023/07/02 03:02:13;;;;;;;14.77;3.78;;;;;;;12.55;62.80;99581.25;4976399;28;20109;-50
2023/07/02 03:04:41;;;;;;;14.00;5.10;;;;;;;12.55;62.67;99589.06;4973541;28;21619;-52
2023/07/02 03:07:08;;;;;;;18.90;3.60;;;;;;;12.53;62.25;99579.59;4974877;28;20504;-54
2023/07/02 03:09:34;;;;;;;11.38;3.47;;;;;;;12.52;63.11;99589.09;4977706;28;20050;-53
2023/07/02 03:12:01;;;;;;;13.25;4.85;;;;;;;12.50;62.98;99590.84;4979054;28;20547;-53
2023/07/02 03:14:27;;;;;;;16.13;3.50;;;;;;;12.49;62.49;99585.72;4974756;28;20470;-51
2023/07/02 03:16:54;;;;;;;12.43;3.90;;;;;;;12.45;62.36;99588.38;4973198;28;20073;-51
2023/07/02 03:19:21;;;;;;;15.43;3.95;;;;;;;12.45;62.16;99595.28;4971576;28;20140;-51
2023/07/02 03:21:48;;;;;;;16.70;4.03;;;;;;;12.42;62.33;99584.94;4969160;28;20055;-50
2023/07/02 03:24:16;;;;;;;20.42;4.13;;;;;;;12.41;63.24;99583.25;4967281;28;20517;-53
2023/07/02 03:26:43;;;;;;;19.85;4.30;;;;;;;12.40;62.99;99586.72;4966331;28;20173;-53
2023/07/02 03:29:11;;;;;;;16.67;4.07;;;;;;;12.38;62.80;99585.88;4966006;28;20053;-54
2023/07/02 03:31:38;;;;;;;14.48;4.18;;;;;;;12.38;63.80;99591.09;4972389;28;20069;-50
2023/07/02 03:34:08;;;;;;;13.15;3.65;;;;;;;12.37;63.20;99591.97;4972918;28;20058;-49
2023/07/02 03:36:35;;;;;;;12.88;3.53;;;;;;;12.34;63.55;99595.50;4970733;28;20057;-53
2023/07/02 03:39:03;;;;;;;17.05;4.88;;;;;;;12.33;63.04;99599.81;4966899;28;20058;-51
2023/07/02 03:41:31;;;;;;;12.90;3.97;;;;;;;12.32;63.57;99595.50;4972186;28;20588;-52
2023/07/02 03:43:58;;;;;;;13.63;3.50;;;;;;;12.33;64.24;99598.97;4970218;28;20050;-51
2023/07/02 03:46:25;;;;;;;17.77;3.50;;;;;;;12.31;64.39;99601.59;4966549;28;20065;-53
2023/07/02 03:48:51;;;;;;;21.65;3.97;;;;;;;12.30;63.53;99605.06;4968822;28;20065;-50
2023/07/02 03:51:18;;;;;;;13.43;3.67;;;;;;;12.29;63.67;99605.94;4970378;28;20049;-52
2023/07/02 03:53:45;;;;;;;14.00;3.63;;;;;;;12.29;63.79;99611.13;4971749;28;20050;-50
2023/07/02 03:56:11;;;;;;;20.35;4.53;;;;;;;12.29;63.67;99613.72;4971042;28;20058;-50
2023/07/02 03:58:40;;;;;;;14.93;4.43;;;;;;;12.27;64.07;99610.31;4966384;28;20053;-50
2023/07/02 04:01:06;;;;;;;17.00;3.88;;;;;;;12.27;64.58;99609.44;4971721;28;20116;-52
2023/07/02 04:03:33;;;;;;;14.25;3.63;;;;;;;12.25;65.23;99617.25;4973931;28;20054;-54
2023/07/02 04:06:00;;;;;;;12.10;3.15;;;;;;;12.25;64.63;99612.06;4969793;28;20065;-52
2023/07/02 04:08:28;;;;;;;14.13;3.67;;;;;;;12.24;64.43;99614.69;4969645;28;20050;-53
2023/07/02 04:10:54;;;;;;;14.25;3.55;;;;;;;12.23;63.91;99619.06;4969153;28;20065;-53
2023/07/02 04:13:21;;;;;;;14.95;3.72;;;;;;;12.23;63.95;99612.97;4963192;28;20065;-48
2023/07/02 04:15:48;;;;;;;15.30;3.47;;;;;;;12.23;64.58;99612.97;4965232;28;20062;-52
2023/07/02 04:18:14;;;;;;;15.60;4.90;;;;;;;12.22;64.66;99606.94;4970948;28;20144;-51
2023/07/02 04:20:41;;;;;;;15.98;3.35;;;;;;;12.22;64.97;99612.13;4970697;28;20105;-54
2023/07/02 04:23:08;;;;;;;13.48;4.10;;;;;;;12.22;65.11;99612.13;4972071;28;20345;-53
2023/07/02 04:25:34;;;;;;;13.45;3.42;;;;;;;12.22;64.73;99617.31;4972910;28;20054;-52
2023/07/02 04:28:21;;;;;;;15.20;3.65;;;;;;;12.21;65.37;99613.00;4963976;28;20227;-53
2023/07/02 04:30:49;;;;;;;16.80;3.80;;;;;;;12.21;65.24;99610.41;4962508;28;20046;-50
2023/07/02 04:33:17;;;;;;;19.38;4.88;;;;;;;12.22;65.26;99609.53;4968647;28;20730;-54
2023/07/02 04:35:44;;;;;;;9.15;3.13;;;;;;;12.23;65.55;99607.78;4970190;28;20551;-54
2023/07/02 04:38:12;;;;;;;17.52;3.88;;;;;;;12.25;65.14;99616.41;4969387;28;20046;-53
2023/07/02 04:40:39;;;;;;;12.30;3.40;;;;;;;12.27;65.71;99610.31;4965026;28;20509;-52
2023/07/02 04:43:05;;;;;;;10.23;3.17;;;;;;;12.31;65.04;99617.19;4968711;28;20050;-52
2023/07/02 04:45:36;;;;;;;14.38;3.17;;;;;;;12.36;64.84;99613.66;4968894;28;20076;-52
2023/07/02 04:48:03;;;;;;;10.30;3.13;;;;;;;12.41;64.94;99601.41;4970344;28;20655;-52
2023/07/02 04:50:30;;;;;;;11.77;2.97;;;;;;;12.47;64.87;99606.53;4964792;28;20051;-55
2023/07/02 04:52:57;;;;;;;12.20;2.88;;;;;;;12.54;64.79;99605.53;4967222;28;20085;-52
2023/07/02 04:55:24;;;;;;;12.18;2.97;;;;;;;12.59;65.82;99611.50;4967133;28;20054;-53
2023/07/02 04:57:50;;;;;;;11.65;2.63;;;;;;;12.66;64.84;99607.03;4963072;28;20050;-52
2023/07/02 05:00:17;;;;;;;9.40;2.78;;;;;;;12.74;65.50;99612.09;4966887;28;20388;-51
2023/07/02 05:02:44;;;;;;;11.35;3.20;;;;;;;12.80;64.63;99614.56;4966877;28;20769;-51
2023/07/02 05:05:11;;;;;;;12.40;2.70;;;;;;;12.88;65.08;99619.63;4973019;28;20170;-54
2023/07/02 05:07:37;;;;;;;11.82;2.97;;;;;;;12.97;65.59;99621.19;4971258;28;20065;-53
2023/07/02 05:10:04;;;;;;;11.27;2.47;;;;;;;13.05;64.88;99624.50;4969980;28;20049;-53
2023/07/02 05:12:31;;;;;;;14.43;2.58;;;;;;;13.15;64.35;99624.31;4967165;28;20054;-51
2023/07/02 05:14:57;;;;;;;10.88;2.65;;;;;;;13.26;65.40;99629.28;4969771;28;20065;-53
2023/07/02 05:17:24;;;;;;;7.90;2.65;;;;;;;13.33;64.79;99625.66;4973911;28;20057;-53
2023/07/02 05:19:51;;;;;;;13.80;3.00;;;;;;;13.43;65.39;99626.31;4973464;28;20156;-54
2023/07/02 05:22:18;;;;;;;9.65;3.50;;;;;;;13.52;65.18;99623.56;4975166;28;20069;-54
2023/07/02 05:24:46;;;;;;;13.20;3.67;;;;;;;13.61;65.07;99623.38;4971353;28;20196;-55
2023/07/02 05:27:12;;;;;;;10.55;3.50;;;;;;;13.70;64.74;99621.44;4962180;28;20050;-51
2023/07/02 05:29:39;;;;;;;11.60;3.58;;;;;;;13.78;65.06;99624.72;4966390;28;20054;-55
2023/07/02 05:32:06;;;;;;;12.43;4.85;;;;;;;13.88;65.63;99631.44;4964387;28;20620;-55
2023/07/02 05:34:34;;;;;;;12.57;3.10;;;;;;;13.96;65.75;99639.09;4966498;28;20057;-51
2023/07/02 05:37:00;;;;;;;12.65;3.22;;;;;;;14.07;64.94;99636.22;4966809;28;20046;-52
2023/07/02 05:39:27;;;;;;;10.27;3.25;;;;;;;14.19;65.06;99642.03;4971269;28;20042;-50
2023/07/02 05:41:54;;;;;;;13.43;3.55;;;;;;;14.29;65.26;99635.72;4971610;28;20074;-52
2023/07/02 05:44:20;;;;;;;11.55;2.97;;;;;;;14.40;64.83;99638.88;4972209;28;20146;-50
2023/07/02 05:46:47;;;;;;;15.18;3.53;;;;;;;14.53;64.84;99636.81;4969814;28;20089;-51
2023/07/02 05:49:14;;;;;;;12.57;3.55;;;;;;;14.69;65.22;99643.38;4973856;28;20133;-53
2023/07/02 05:51:40;;;;;;;11.52;3.42;;;;;;;14.85;64.55;99634.28;4968227;28;20046;-54
2023/07/02 05:54:07;;;;;;;13.05;3.55;;;;;;;14.98;64.79;99640.03;4971834;28;20045;-51
2023/07/02 05:56:34;;;;;;;14.13;3.13;;;;;;;15.14;64.43;99635.22;4968164;28;20046;-54
2023/07/02 05:59:00;;;;;;;13.30;3.13;;;;;;;15.33;64.37;99639.06;4967716;28;20137;-52
2023/07/02 06:01:27;;;;;;;10.27;3.15;;;;;;;15.50;64.03;99641.19;4967169;28;20051;-52
2023/07/02 06:03:54;;;;;;;11.95;2.92;;;;;;;15.66;63.96;99644.19;4971343;28;20046;-53
2023/07/02 06:06:24;;;;;;;12.07;3.28;;;;;;;15.80;63.73;99644.63;4968241;28;20421;-53
2023/07/02 06:08:51;;;;;;;;;;;;;;;15.86;63.45;99648.78;4965643;28;20166;-53
2023/07/02 06:11:17;;;;;;;8.85;2.42;;;;;;;16.10;63.25;99646.34;4967080;28;19936;-50
2023/07/02 06:13:44;;;;;;;17.85;2.92;;;;;;;16.25;62.75;99649.38;4970484;28;20050;-51
2023/07/02 06:16:11;;;;;;;10.43;2.90;;;;;;;16.41;62.96;99661.00;4969443;28;20876;-51
2023/07/02 06:18:37;;;;;;;12.80;2.65;;;;;;;16.55;62.09;99654.47;4961767;28;20054;-51
2023/07/02 06:21:04;;;;;;;10.13;2.58;;;;;;;16.72;62.34;99663.50;4967016;28;20050;-52
2023/07/02 06:23:40;;;;;;;9.88;2.55;;;;;;;16.83;61.13;99656.97;4969546;28;20062;-52
2023/07/02 06:26:07;;;;;;;9.70;3.35;;;;;;;16.98;61.39;99659.94;4974170;28;20058;-52
2023/07/02 06:28:33;;;;;;;10.52;2.85;;;;;;;17.09;60.80;99660.47;4972823;28;20057;-51
2023/07/02 06:31:00;;;;;;;9.07;2.50;;;;;;;17.23;60.52;99658.25;4970294;28;20050;-51
2023/07/02 06:33:27;;;;;;;9.40;2.33;;;;;;;17.32;61.18;99663.13;4966286;28;20054;-54
2023/07/02 06:35:54;;;;;;;10.10;2.90;;;;;;;17.44;60.76;99670.56;4972577;28;20984;-50
2023/07/02 06:38:20;;;;;;;7.93;2.55;;;;;;;17.58;60.35;99674.41;4969985;28;20046;-53
2023/07/02 06:40:47;;;;;;;7.85;2.33;;;;;;;17.70;60.09;99671.31;4973497;28;20050;-52
2023/07/02 06:43:14;;;;;;;5.80;2.38;;;;;;;17.89;60.30;99680.22;4969125;28;20053;-53
2023/07/02 06:45:41;;;;;;;9.15;2.15;;;;;;;18.07;59.07;99665.56;4971082;28;20493;-52
2023/07/02 06:48:07;;;;;;;8.80;2.47;;;;;;;18.23;59.12;99661.41;4973942;28;20058;-51
2023/07/02 06:50:35;;;;;;;10.70;2.90;;;;;;;18.41;58.69;99661.56;4972125;28;20051;-51
2023/07/02 06:53:01;;;;;;;8.95;2.22;;;;;;;18.61;58.18;99659.91;4972404;28;20406;-51
2023/07/02 06:55:28;;;;;;;8.07;2.60;;;;;;;18.83;57.89;99658.94;4961606;28;20141;-53
2023/07/02 06:57:55;;;;;;;5.13;2.05;;;;;;;19.01;57.48;99658.16;4973731;28;20049;-54
2023/07/02 07:00:21;;;;;;;10.90;2.42;;;;;;;19.05;56.25;99669.34;4968023;28;20057;-54
2023/07/02 07:02:48;;;;;;;7.70;2.63;;;;;;;18.98;55.94;99666.16;4969000;28;20104;-54
2023/07/02 07:05:15;;;;;;;6.75;2.38;;;;;;;18.95;55.98;99666.28;4974702;28;20054;-50
2023/07/02 07:07:41;;;;;;;8.90;2.53;;;;;;;18.95;55.56;99663.66;4972760;28;20173;-52
2023/07/02 07:10:08;;;;;;;6.18;2.13;;;;;;;19.04;55.72;99666.81;4966856;28;20049;-53
2023/07/02 07:12:35;;;;;;;8.88;2.70;;;;;;;19.26;55.96;99662.31;4968793;28;20054;-53
2023/07/02 07:15:02;;;;;;;7.13;2.17;;;;;;;19.57;56.19;99672.34;4971410;28;20127;-54
2023/07/02 07:17:29;;;;;;;9.50;2.10;;;;;;;19.87;55.78;99677.09;4972999;28;20054;-53
2023/07/02 07:19:56;;;;;;;8.13;2.75;;;;;;;20.08;54.89;99677.00;4973988;28;20050;-52
2023/07/02 07:22:22;;;;;;;5.32;1.52;;;;;;;20.21;54.31;99675.50;4975522;28;20058;-53
2023/07/02 07:24:49;;;;;;;6.20;2.08;;;;;;;20.35;54.12;99672.19;4970619;28;20470;-53
2023/07/02 07:27:15;;;;;;;5.95;1.77;;;;;;;20.52;53.92;99676.59;4973740;28;20058;-52
2023/07/02 07:29:42;;;;;;;8.57;2.17;;;;;;;20.77;53.47;99672.69;4973022;28;22221;-51
2023/07/02 07:32:09;;;;;;;4.30;1.60;;;;;;;21.08;53.40;99674.72;4974638;28;20061;-56
2023/07/02 07:34:35;;;;;;;7.97;2.38;;;;;;;21.28;52.56;99679.75;4968221;28;20057;-56
2023/07/02 07:37:02;;;;;;;6.05;2.20;;;;;;;21.46;52.38;99679.69;4969987;28;20414;-54
2023/07/02 07:39:29;;;;;;;5.80;2.15;;;;;;;21.61;51.17;99682.44;4974865;28;20046;-53
2023/07/02 07:41:55;;;;;;;7.22;1.67;;;;;;;21.61;50.87;99677.16;4972597;28;20058;-55
2023/07/02 07:44:22;;;;;;;7.32;2.22;;;;;;;21.61;50.77;99682.44;4974280;28;20061;-53
2023/07/02 07:46:48;;;;;;;7.65;1.88;;;;;;;21.66;50.22;99685.66;4968936;28;20054;-53
2023/07/02 07:49:15;;;;;;;6.07;2.70;;;;;;;21.79;50.30;99676.16;4968277;28;20671;-53
2023/07/02 07:51:42;;;;;;;10.07;2.03;;;;;;;22.01;50.53;99685.50;4964278;28;20058;-54
2023/07/02 07:54:08;;;;;;;6.18;1.98;;;;;;;22.16;49.88;99689.06;4970189;28;20517;-51
2023/07/02 07:56:35;;;;;;;5.22;1.92;;;;;;;22.34;49.80;99692.44;4969477;28;20046;-53
2023/07/02 07:59:02;;;;;;;5.53;1.90;;;;;;;22.46;49.50;99687.38;4970462;28;20058;-53
2023/07/02 08:01:29;;;;;;;6.75;2.20;;;;;;;22.47;49.02;99681.16;4966892;28;20694;-52
2023/07/02 08:03:56;;;;;;;6.68;2.08;;;;;;;22.46;48.61;99676.84;4965744;28;20054;-54
2023/07/02 08:06:23;;;;;;;8.48;2.13;;;;;;;22.46;48.27;99679.47;4972597;28;20081;-53
2023/07/02 08:08:50;;;;;;;7.72;1.60;;;;;;;22.40;47.72;99683.31;4961318;28;20057;-53
2023/07/02 08:11:16;;;;;;;7.13;1.95;;;;;;;22.36;48.24;99684.44;4971078;28;20061;-53
2023/07/02 08:13:43;;;;;;;6.57;1.98;;;;;;;22.41;47.55;99681.50;4970505;28;20043;-53
2023/07/02 08:16:09;;;;;;;7.53;2.00;;;;;;;22.34;47.77;99687.16;4969806;28;20061;-55
2023/07/02 08:18:36;;;;;;;8.10;1.92;;;;;;;22.22;46.96;99679.94;4968381;28;20536;-51
2023/07/02 08:21:06;;;;;;;7.85;3.05;;;;;;;22.05;46.97;99681.75;4967708;28;20687;-53
2023/07/02 08:23:33;;;;;;;6.63;2.20;;;;;;;21.87;47.34;99677.53;4970386;28;20413;-55
2023/07/02 08:25:59;;;;;;;5.07;1.83;;;;;;;21.79;47.82;99676.16;4965021;28;20046;-54
2023/07/02 08:28:26;;;;;;;7.75;1.90;;;;;;;21.75;47.23;99679.91;4967899;28;20058;-55
2023/07/02 08:30:53;;;;;;;7.50;2.53;;;;;;;21.76;46.57;99676.34;4965334;28;20060;-48
2023/07/02 08:33:22;;;;;;;6.57;1.60;;;;;;;21.76;47.62;99692.16;4960914;28;20053;-46
2023/07/02 08:35:48;;;;;;;6.30;1.98;;;;;;;21.74;47.22;99682.63;4969201;28;20062;-56
2023/07/02 08:38:15;;;;;;;5.72;1.85;;;;;;;21.74;46.74;99672.94;4967433;28;20049;-53
2023/07/02 08:40:42;;;;;;;6.78;1.40;;;;;;;21.60;45.64;99675.44;4971972;28;20410;-50
2023/07/02 08:43:08;;;;;;;6.00;1.60;;;;;;;21.46;46.27;99679.69;4972878;28;20526;-49
2023/07/02 08:45:36;;;;;;;6.65;1.88;;;;;;;21.41;46.52;99681.75;4971784;28;20052;-46
2023/07/02 08:48:03;;;;;;;8.82;2.25;;;;;;;21.32;46.23;99683.91;4972268;28;20062;-42
2023/07/02 08:50:30;;;;;;;6.35;1.75;;;;;;;21.28;45.90;99679.75;4977213;28;20061;-44
2023/07/02 08:52:56;;;;;;;5.28;1.40;;;;;;;21.17;45.58;99684.72;4975787;28;20061;-45
2023/07/02 08:55:23;;;;;;;7.28;1.65;;;;;;;21.06;45.19;99680.91;4970714;28;20120;-47
2023/07/02 08:57:53;;;;;;;7.85;1.38;;;;;;;20.95;45.20;99687.66;4968429;28;20058;-48
2023/07/02 09:00:21;;;;;;;7.60;1.60;;;;;;;20.88;46.31;99687.09;4965371;28;20082;-39
2023/07/02 09:02:48;;;;;;;5.05;1.40;;;;;;;20.85;46.24;99689.88;4967800;28;20672;-46
2023/07/02 09:05:15;;;;;;;8.85;1.67;;;;;;;20.79;46.10;99681.38;4970923;28;20096;-45
2023/07/02 09:07:46;;;;;;;4.88;2.05;;;;;;;20.73;46.03;99681.69;4974755;28;20058;-46
2023/07/02 09:10:24;;;;;;;10.23;1.70;;;;;;;20.69;46.36;99685.41;4961845;28;20050;-46
2023/07/02 09:13:02;;;;;;;6.25;1.40;;;;;;;20.64;46.66;99683.00;4967820;28;20130;-48
2023/07/02 09:15:39;;;;;;;8.23;1.98;;;;;;;20.70;47.02;99688.91;4965156;28;20494;-45
2023/07/02 09:18:24;;;;;;;6.47;1.70;;;;;;;20.64;46.96;99687.44;4970505;28;20057;-45
2023/07/02 09:20:53;;;;;;;7.32;1.50;;;;;;;20.59;46.58;99681.53;4969783;28;20050;-45
2023/07/02 09:23:21;;;;;;;7.90;1.75;;;;;;;20.43;46.86;99677.03;4971336;28;20054;-44
2023/07/02 09:25:48;;;;;;;8.70;1.80;;;;;;;20.29;47.03;99678.59;4968927;28;20406;-44
2023/07/02 09:30:54;;;;;;;7.22;1.83;;;;;;;20.14;46.47;99668.84;5033771;27;20409;-46
2023/07/02 09:33:23;;;;;;;5.38;1.73;;;;;;;20.03;46.16;99683.34;5007617;28;20076;-46
2023/07/02 09:35:51;;;;;;;11.43;1.58;;;;;;;19.96;46.10;99686.31;5010059;28;20050;-45
2023/07/02 09:38:19;;;;;;;6.93;1.83;;;;;;;19.94;46.41;99683.75;5003983;28;20490;-45
2023/07/02 09:40:49;;;;;;;5.72;1.38;;;;;;;19.85;46.61;99684.19;5008389;28;21375;-44
2023/07/02 09:43:18;;;;;;;6.40;1.42;;;;;;;19.77;46.79;99681.94;5009073;28;20061;-47
2023/07/02 09:45:47;;;;;;;5.40;1.48;;;;;;;19.75;47.21;99674.13;5005790;28;20060;-45
2023/07/02 09:48:15;;;;;;;6.00;2.10;;;;;;;19.76;46.73;99681.06;5007896;28;20053;-45
2023/07/02 09:50:47;;;;;;;6.90;1.45;;;;;;;19.83;46.74;99680.78;4982369;28;20062;-46
2023/07/02 09:53:15;;;;;;;4.88;1.48;;;;;;;19.83;46.93;99668.50;4976445;28;20075;-50
2023/07/02 09:55:43;;;;;;;6.38;1.58;;;;;;;19.82;47.37;99676.47;4981522;28;20058;-47
2023/07/02 09:58:11;;;;;;;13.27;1.90;;;;;;;19.80;46.92;99686.19;4977033;28;20054;-45
2023/07/02 10:00:39;;;;;;;6.57;1.50;;;;;;;19.75;47.33;99684.63;4976244;28;20108;-45
2023/07/02 10:03:06;;;;;;;6.45;1.30;;;;;;;19.72;47.22;99684.75;4982719;28;20060;-46
2023/07/02 10:05:33;;;;;;;8.63;2.15;;;;;;;19.66;47.23;99687.69;4979634;28;20054;-51
2023/07/02 10:08:17;;;;;;;21.60;2.35;;;;;;;19.64;47.57;99684.28;4975718;28;20153;-43
2023/07/02 10:10:45;;;;;;;21.10;2.92;;;;;;;19.77;47.36;99676.66;4982179;28;20561;-51
2023/07/02 10:13:13;;;;;;;9.98;1.98;;;;;;;19.89;47.85;99678.72;4975886;28;20084;-47
2023/07/02 10:15:40;;;;;;;7.93;1.88;;;;;;;19.99;47.88;99675.66;4976220;28;20058;-45
2023/07/02 10:18:06;;;;;;;10.90;2.20;;;;;;;20.07;47.75;99678.81;4980776;28;20085;-46
2023/07/02 10:20:36;;;;;;;8.13;2.15;;;;;;;20.10;47.61;99680.41;4980288;28;20061;-52
2023/07/02 10:23:04;;;;;;;6.28;1.90;;;;;;;20.11;48.21;99679.50;4978480;28;20228;-51
2023/07/02 10:25:34;;;;;;;10.10;3.17;;;;;;;20.06;47.80;99671.81;4980553;28;20434;-54
2023/07/02 10:28:02;;;;;;;10.20;1.90;;;;;;;20.01;48.07;99685.19;4982343;28;20498;-44
2023/07/02 10:30:35;;;;;;;8.00;2.22;;;;;;;19.93;47.79;99676.81;4980211;28;20050;-49
2023/07/02 10:33:18;;;;;;;12.50;1.67;;;;;;;19.70;47.59;99681.38;4979408;28;20080;-41
2023/07/02 10:35:49;;;;;;;8.38;2.03;;;;;;;19.64;48.40;99686.91;4970232;28;20058;-40
2023/07/02 10:40:57;;;;;;;7.45;3.42;;;;;;;19.47;48.75;99688.53;5046323;28;20398;-46
2023/07/02 10:43:32;;;;;;;8.15;2.40;;;;;;;19.40;48.83;99689.75;5029187;28;20032;-42
2023/07/02 10:46:00;;;;;;;7.88;2.15;;;;;;;19.41;49.37;99683.56;5026236;28;20377;-46
2023/07/02 10:48:28;;;;;;;7.97;2.85;;;;;;;19.43;49.54;99678.25;5025815;28;20060;-46
2023/07/02 10:50:55;;;;;;;7.63;2.95;;;;;;;19.50;49.60;99680.53;5029032;28;20053;-47
2023/07/02 10:53:22;;;;;;;8.77;3.03;;;;;;;19.64;49.61;99671.13;5027756;28;20464;-40
2023/07/02 10:55:57;;;;;;;8.63;2.58;;;;;;;19.83;49.48;99660.63;5032265;28;20057;-45
2023/07/02 10:58:25;;;;;;;7.03;3.50;;;;;;;20.14;49.68;99663.56;5014116;28;20107;-41
2023/07/02 11:00:51;;;;;;;8.35;3.08;;;;;;;20.49;49.35;99658.34;5020451;28;20140;-45
2023/07/02 11:03:19;;;;;;;6.82;2.05;;;;;;;;;;5025684;28;20437;-44
2023/07/02 11:05:47;;;;;;;8.00;2.53;;;;;;;21.01;48.36;99661.84;5041797;28;20076;-44
2023/07/02 11:08:14;;;;;;;7.47;2.47;;;;;;;21.08;47.49;99664.19;5043813;28;20136;-45
2023/07/02 11:10:41;;;;;;;7.18;2.08;;;;;;;21.19;47.75;99661.81;5030336;28;20506;-44
2023/07/02 11:13:18;;;;;;;16.67;3.88;;;;;;;21.30;45.98;99656.81;5025183;28;20045;-43
2023/07/02 11:15:46;;;;;;;6.95;2.55;;;;;;;21.43;45.71;99659.66;5027246;28;20172;-49
2023/07/02 11:18:15;;;;;;;6.25;2.35;;;;;;;21.42;45.01;99651.84;5023044;28;20531;-44
2023/07/02 11:20:44;;;;;;;3.85;2.20;;;;;;;21.35;45.11;99661.84;5022974;28;20049;-41
2023/07/02 11:23:27;;;;;;;6.15;1.90;;;;;;;21.16;44.38;99659.34;5026405;28;20048;-45
2023/07/02 11:25:56;;;;;;;6.30;2.25;;;;;;;21.12;44.84;99652.53;5028371;28;20076;-44
2023/07/02 11:28:24;;;;;;;6.15;2.55;;;;;;;21.15;45.07;99662.91;5021239;28;21050;-44
2023/07/02 11:30:51;;;;;;;9.05;2.53;;;;;;;21.18;44.71;99660.97;5027101;28;20135;-47
2023/07/02 11:33:18;;;;;;;6.68;2.55;;;;;;;21.18;44.37;99657.50;5027403;28;20060;-45
2023/07/02 11:35:44;;;;;;;8.00;3.00;;;;;;;21.13;44.51;99656.88;5025131;28;20045;-44
2023/07/02 11:38:12;;;;;;;6.70;2.40;;;;;;;21.04;44.80;99659.06;5027902;28;20060;-43